Time;durP1;ratioP1;P1;durP2;ratioP2;P2;SDS_P1;SDS_P2;PMS_P1;PMS_P2;Temp;Humidity;BMP_temperature;BMP_pressure;BME280_temperature;BME280_humidity;BME280_pressure;Samples;Min_cycle;Max_cycle;Signal;HPM_P1;HPM_P2
2022/12/21 00:00:12;;;;;;;18.90;16.95;;;;;;;;;;5041167;28;20062;-64
2022/12/21 00:02:39;;;;;;;20.33;17.25;;;;;;;;;;5039396;28;20063;-64
2022/12/21 00:05:04;;;;;;;22.27;17.90;;;;;;;;;;5037160;28;20025;-65
2022/12/21 00:07:30;;;;;;;22.92;18.02;;;;;;;;;;5027216;28;20090;-64
2022/12/21 00:09:55;;;;;;;24.42;17.75;;;;;;;;;;5016654;28;20119;-64
2022/12/21 00:12:20;;;;;;;21.05;17.70;;;;;;;;;;5016972;28;20068;-64
2022/12/21 00:14:45;;;;;;;22.08;17.50;;;;;;;;;;5015130;28;20169;-64
2022/12/21 00:17:11;;;;;;;29.30;18.77;;;;;;;;;;5029638;28;20100;-64
2022/12/21 00:19:36;;;;;;;27.85;18.95;;;;;;;;;;5036709;28;20017;-64
2022/12/21 00:22:01;;;;;;;20.60;18.25;;;;;;;;;;5037345;28;20024;-64
2022/12/21 00:24:27;;;;;;;31.60;19.75;;;;;;;;;;5037810;28;20077;-64
2022/12/21 00:26:52;;;;;;;30.65;19.83;;;;;;;;;;5039443;28;20099;-64
2022/12/21 00:29:17;;;;;;;25.60;19.15;;;;;;;;;;5041926;28;20013;-64
2022/12/21 00:31:43;;;;;;;32.35;22.60;;;;;;;;;;5045633;28;20427;-64
2022/12/21 00:34:09;;;;;;;25.13;21.20;;;;;;;;;;5044720;28;20060;-64
2022/12/21 00:36:36;;;;;;;26.33;21.30;;;;;;;;;;5043866;28;20542;-64
2022/12/21 00:39:01;;;;;;;35.10;22.05;;;;;;;;;;5042620;28;20047;-64
2022/12/21 00:41:27;;;;;;;31.50;22.73;;;;;;;;;;5039922;28;20401;-64
2022/12/21 00:43:54;;;;;;;25.33;21.67;;;;;;;;;;5042885;28;20017;-64
2022/12/21 00:46:23;;;;;;;24.63;19.98;;;;;;;;;;5043750;28;20489;-64
2022/12/21 00:48:50;;;;;;;37.67;24.83;;;;;;;;;;5041584;28;20036;-64
2022/12/21 00:51:17;;;;;;;26.85;22.70;;;;;;;;;;5042845;28;20031;-64
2022/12/21 00:53:42;;;;;;;36.75;22.52;;;;;;;;;;5042083;28;20017;-64
2022/12/21 00:56:08;;;;;;;29.35;24.17;;;;;;;;;;5042407;28;20032;-64
2022/12/21 00:58:34;;;;;;;38.65;23.75;;;;;;;;;;5044079;28;20045;-64
2022/12/21 01:01:03;;;;;;;34.25;23.48;;;;;;;;;;5044313;28;20514;-64
2022/12/21 01:03:29;;;;;;;39.20;24.42;;;;;;;;;;5043135;28;20678;-64
2022/12/21 01:05:54;;;;;;;34.92;22.95;;;;;;;;;;5038854;28;20017;-64
2022/12/21 01:08:20;;;;;;;35.38;25.42;;;;;;;;;;5039448;28;20103;-64
2022/12/21 01:10:45;;;;;;;43.30;27.20;;;;;;;;;;5040156;28;20107;-64
2022/12/21 01:13:11;;;;;;;34.20;27.77;;;;;;;;;;5037416;28;20069;-64
2022/12/21 01:15:43;;;;;;;42.55;28.08;;;;;;;;;;5029790;28;20584;-64
2022/12/21 01:18:10;;;;;;;39.45;26.77;;;;;;;;;;5031345;28;20075;-64
2022/12/21 01:20:44;;;;;;;43.72;29.20;;;;;;;;;;5038954;28;20057;-64
2022/12/21 01:23:09;;;;;;;47.38;29.65;;;;;;;;;;5037567;28;20027;-64
2022/12/21 01:25:35;;;;;;;44.70;28.60;;;;;;;;;;5040728;28;20025;-64
2022/12/21 01:28:00;;;;;;;45.63;30.42;;;;;;;;;;5041807;28;20048;-64
2022/12/21 01:30:25;;;;;;;41.20;29.77;;;;;;;;;;5042534;28;20033;-64
2022/12/21 01:32:51;;;;;;;46.70;31.17;;;;;;;;;;5040623;28;20049;-64
2022/12/21 01:35:16;;;;;;;44.45;30.90;;;;;;;;;;5042268;28;20033;-64
2022/12/21 01:37:41;;;;;;;58.30;32.47;;;;;;;;;;5038649;28;20565;-64
2022/12/21 01:40:07;;;;;;;42.28;30.17;;;;;;;;;;5041528;28;20025;-64
2022/12/21 01:42:32;;;;;;;51.65;30.20;;;;;;;;;;5038054;28;20758;-64
2022/12/21 01:45:00;;;;;;;47.97;30.13;;;;;;;;;;5038173;28;20371;-64
2022/12/21 01:47:36;;;;;;;37.20;28.00;;;;;;;;;;5039927;28;20024;-64
2022/12/21 01:50:03;;;;;;;36.60;26.98;;;;;;;;;;5038114;28;20029;-64
2022/12/21 01:52:30;;;;;;;41.90;28.13;;;;;;;;;;5040563;28;20130;-64
2022/12/21 01:54:58;;;;;;;44.47;30.13;;;;;;;;;;5038896;28;20036;-64
2022/12/21 01:57:24;;;;;;;35.78;27.55;;;;;;;;;;5039096;28;20032;-64
2022/12/21 01:59:51;;;;;;;41.85;28.55;;;;;;;;;;5038032;28;20055;-64
2022/12/21 02:02:19;;;;;;;32.63;24.63;;;;;;;;;;5040255;28;20017;-64
2022/12/21 02:04:44;;;;;;;27.90;24.13;;;;;;;;;;5039059;28;20021;-65
2022/12/21 02:07:10;;;;;;;28.17;21.90;;;;;;;;;;5038562;28;20048;-65
2022/12/21 02:09:35;;;;;;;34.05;22.52;;;;;;;;;;5036931;28;20083;-65
2022/12/21 02:12:03;;;;;;;28.60;22.45;;;;;;;;;;5035444;28;20029;-65
2022/12/21 02:14:31;;;;;;;35.60;22.95;;;;;;;;;;5033655;28;20032;-65
2022/12/21 02:17:25;;;;;;;31.02;23.98;;;;;;;;;;5037083;28;20028;-65
2022/12/21 02:20:03;;;;;;;31.33;22.52;;;;;;;;;;5032529;28;20029;-65
2022/12/21 02:22:47;;;;;;;35.65;24.75;;;;;;;;;;5034879;28;20819;-65
2022/12/21 02:25:12;;;;;;;36.30;25.25;;;;;;;;;;5025747;28;20048;-65
2022/12/21 02:27:49;;;;;;;33.30;24.25;;;;;;;;;;5037853;28;20799;-65
2022/12/21 02:30:18;;;;;;;38.47;23.15;;;;;;;;;;5041246;28;20806;-64
2022/12/21 02:32:46;;;;;;;33.58;23.52;;;;;;;;;;5039010;28;20017;-64
2022/12/21 02:35:24;;;;;;;38.20;24.27;;;;;;;;;;5036308;28;20044;-64
2022/12/21 02:37:49;;;;;;;29.27;19.20;;;;;;;;;;5036932;28;20020;-64
2022/12/21 02:40:17;;;;;;;30.37;22.03;;;;;;;;;;5034869;28;20391;-64
2022/12/21 02:45:50;;;;;;;49.05;24.20;;;;;;;;;;5033137;28;20076;-64
2022/12/21 02:48:34;;;;;;;39.67;17.17;;;;;;;;;;5035587;28;20053;-64
2022/12/21 02:51:02;;;;;;;45.10;18.92;;;;;;;;;;5033654;28;20044;-64
2022/12/21 02:53:36;;;;;;;21.92;16.77;;;;;;;;;;5036712;28;20188;-64
2022/12/21 02:56:01;;;;;;;30.38;19.27;;;;;;;;;;5036646;28;20120;-64
2022/12/21 02:58:26;;;;;;;81.45;21.35;;;;;;;;;;5036913;28;20024;-64
2022/12/21 03:00:52;;;;;;;39.40;18.55;;;;;;;;;;5037790;28;20025;-64
2022/12/21 03:03:48;;;;;;;53.08;19.35;;;;;;;;;;5029417;28;20919;-64
2022/12/21 03:06:22;;;;;;;96.82;26.63;;;;;;;;;;5035647;28;20016;-64
2022/12/21 03:09:06;;;;;;;188.77;28.70;;;;;;;;;;5036520;28;20123;-64
2022/12/21 03:11:41;;;;;;;44.85;21.52;;;;;;;;;;5031378;28;20037;-64
2022/12/21 03:14:13;;;;;;;100.28;22.13;;;;;;;;;;5035868;28;20033;-64
2022/12/21 03:16:42;;;;;;;53.13;27.45;;;;;;;;;;5033794;28;20031;-65
2022/12/21 03:19:10;;;;;;;48.85;30.73;;;;;;;;;;5031838;28;20024;-65
2022/12/21 03:21:41;;;;;;;48.35;28.52;;;;;;;;;;5031128;28;20025;-65
2022/12/21 03:24:12;;;;;;;39.67;27.05;;;;;;;;;;5032213;28;20017;-65
2022/12/21 03:26:47;;;;;;;38.88;27.35;;;;;;;;;;5028851;28;20032;-65
2022/12/21 03:29:15;;;;;;;42.60;29.33;;;;;;;;;;5019400;28;20017;-64
2022/12/21 03:31:42;;;;;;;49.60;29.15;;;;;;;;;;5024505;28;20029;-64
2022/12/21 03:34:10;;;;;;;41.38;29.42;;;;;;;;;;5031851;28;20293;-65
2022/12/21 03:36:45;;;;;;;51.42;27.70;;;;;;;;;;5030686;28;20109;-64
2022/12/21 03:39:13;;;;;;;51.90;27.42;;;;;;;;;;5031342;28;20047;-64
2022/12/21 03:41:40;;;;;;;38.00;27.55;;;;;;;;;;5032044;28;20052;-64
2022/12/21 03:44:08;;;;;;;29.52;22.67;;;;;;;;;;5030560;28;20048;-64
2022/12/21 03:46:45;;;;;;;28.45;20.45;;;;;;;;;;5032442;28;20025;-64
2022/12/21 03:49:31;;;;;;;30.00;21.77;;;;;;;;;;5022134;28;20029;-64
2022/12/21 03:52:02;;;;;;;22.40;17.67;;;;;;;;;;5020107;28;20040;-64
2022/12/21 03:54:27;;;;;;;24.10;17.48;;;;;;;;;;5033202;28;20030;-64
2022/12/21 03:56:53;;;;;;;22.60;18.33;;;;;;;;;;5033381;28;20465;-63
2022/12/21 03:59:19;;;;;;;23.10;16.00;;;;;;;;;;5034030;28;20842;-64
2022/12/21 04:02:03;;;;;;;17.85;12.80;;;;;;;;;;5039027;28;20021;-64
2022/12/21 04:04:31;;;;;;;19.77;13.40;;;;;;;;;;5037666;28;20021;-63
2022/12/21 04:06:58;;;;;;;23.17;14.45;;;;;;;;;;5034144;28;20135;-64
2022/12/21 04:09:24;;;;;;;22.27;13.75;;;;;;;;;;5032144;28;20745;-64
2022/12/21 04:14:33;;;;;;;16.38;9.57;;;;;;;;;;5034109;28;20410;-64
2022/12/21 04:16:58;;;;;;;13.43;8.48;;;;;;;;;;5036941;28;20013;-64
2022/12/21 04:22:08;;;;;;;12.93;8.23;;;;;;;;;;5037693;28;20024;-64
2022/12/21 04:30:09;;;;;;;14.35;8.77;;;;;;;;;;5039312;28;20029;-64
2022/12/21 04:32:34;;;;;;;11.77;7.88;;;;;;;;;;5039703;28;20030;-63
2022/12/21 04:34:59;;;;;;;13.60;9.30;;;;;;;;;;5038508;28;20024;-63
2022/12/21 04:37:30;;;;;;;14.85;8.95;;;;;;;;;;5038810;28;20107;-64
2022/12/21 04:39:56;;;;;;;17.23;10.48;;;;;;;;;;5034453;28;20020;-64
2022/12/21 04:42:21;;;;;;;14.00;10.05;;;;;;;;;;5041226;28;20029;-64
2022/12/21 04:44:46;;;;;;;16.00;10.18;;;;;;;;;;5040849;28;20024;-64
2022/12/21 04:47:12;;;;;;;18.77;11.05;;;;;;;;;;5038130;28;20024;-65
2022/12/21 04:49:37;;;;;;;20.05;11.50;;;;;;;;;;5033804;28;20542;-64
2022/12/21 04:52:02;;;;;;;18.45;9.82;;;;;;;;;;5037654;28;20020;-65
2022/12/21 04:54:27;;;;;;;19.85;11.07;;;;;;;;;;5035544;28;20033;-65
2022/12/21 04:56:53;;;;;;;15.95;10.32;;;;;;;;;;5035322;28;20676;-65
2022/12/21 04:59:18;;;;;;;21.45;11.68;;;;;;;;;;5040020;28;20017;-65
2022/12/21 05:01:43;;;;;;;15.63;10.43;;;;;;;;;;5037228;28;20018;-65
2022/12/21 05:04:10;;;;;;;15.00;10.00;;;;;;;;;;5037256;28;20086;-64
2022/12/21 05:06:35;;;;;;;14.73;9.50;;;;;;;;;;5036157;28;20021;-64
2022/12/21 05:09:00;;;;;;;14.68;9.02;;;;;;;;;;5035274;28;20096;-64
2022/12/21 05:11:26;;;;;;;18.55;11.68;;;;;;;;;;5030077;28;20025;-63
2022/12/21 05:13:51;;;;;;;20.88;12.65;;;;;;;;;;5037043;28;20025;-64
2022/12/21 05:16:19;;;;;;;21.85;12.23;;;;;;;;;;5027527;28;20117;-64
2022/12/21 05:18:44;;;;;;;19.25;13.13;;;;;;;;;;5032570;28;20013;-64
2022/12/21 05:21:09;;;;;;;24.10;13.27;;;;;;;;;;5027290;28;20825;-63
2022/12/21 05:23:35;;;;;;;22.15;12.88;;;;;;;;;;5035759;28;20132;-64
2022/12/21 05:26:01;;;;;;;15.45;11.25;;;;;;;;;;5035693;28;20031;-64
2022/12/21 05:28:26;;;;;;;19.90;11.50;;;;;;;;;;5035989;28;20139;-64
2022/12/21 05:30:52;;;;;;;21.73;12.27;;;;;;;;;;5035821;28;20029;-64
2022/12/21 05:33:17;;;;;;;19.00;12.63;;;;;;;;;;5028727;28;20128;-64
2022/12/21 05:35:42;;;;;;;20.00;12.57;;;;;;;;;;5036101;28;20062;-64
2022/12/21 05:38:07;;;;;;;19.65;12.23;;;;;;;;;;5034046;28;20066;-64
2022/12/21 05:40:33;;;;;;;16.98;11.75;;;;;;;;;;5035933;28;20494;-64
2022/12/21 05:42:59;;;;;;;21.73;12.55;;;;;;;;;;5039145;28;20029;-63
2022/12/21 05:45:24;;;;;;;20.35;11.55;;;;;;;;;;5039018;28;20044;-64
2022/12/21 05:47:49;;;;;;;20.83;11.52;;;;;;;;;;5037574;28;20017;-64
2022/12/21 05:50:14;;;;;;;20.50;11.48;;;;;;;;;;5037124;28;20025;-63
2022/12/21 05:52:40;;;;;;;19.90;11.52;;;;;;;;;;5034950;28;20021;-63
2022/12/21 05:55:05;;;;;;;25.05;10.88;;;;;;;;;;5033751;28;20132;-63
2022/12/21 05:57:30;;;;;;;15.77;11.00;;;;;;;;;;5035022;28;20070;-64
2022/12/21 05:59:56;;;;;;;21.35;11.80;;;;;;;;;;5035505;28;20024;-64
2022/12/21 06:02:21;;;;;;;15.98;9.70;;;;;;;;;;5010560;28;20029;-64
2022/12/21 06:04:46;;;;;;;20.10;10.25;;;;;;;;;;5036522;28;20028;-64
2022/12/21 06:07:12;;;;;;;20.38;11.25;;;;;;;;;;5033837;28;20016;-64
2022/12/21 06:09:37;;;;;;;20.23;11.82;;;;;;;;;;5036479;28;20020;-63
2022/12/21 06:12:02;;;;;;;21.05;12.85;;;;;;;;;;5036686;28;20064;-63
2022/12/21 06:14:27;;;;;;;21.08;12.80;;;;;;;;;;5035400;28;20036;-63
2022/12/21 06:16:53;;;;;;;19.92;14.32;;;;;;;;;;5034842;28;20028;-63
2022/12/21 06:19:18;;;;;;;20.88;14.60;;;;;;;;;;5031912;28;20759;-63
2022/12/21 06:21:43;;;;;;;22.98;14.32;;;;;;;;;;5032505;28;20782;-63
2022/12/21 06:24:08;;;;;;;28.75;15.25;;;;;;;;;;5031053;28;20071;-63
2022/12/21 06:26:34;;;;;;;21.95;15.18;;;;;;;;;;5030454;28;20021;-63
2022/12/21 06:28:59;;;;;;;27.55;16.90;;;;;;;;;;5045339;28;20471;-63
2022/12/21 06:31:24;;;;;;;28.70;17.10;;;;;;;;;;5045760;28;20047;-64
2022/12/21 06:33:50;;;;;;;26.77;16.95;;;;;;;;;;5044443;28;20135;-63
2022/12/21 06:36:15;;;;;;;23.42;17.95;;;;;;;;;;5053576;28;20059;-64
2022/12/21 06:38:40;;;;;;;24.30;17.75;;;;;;;;;;5052723;28;20497;-63
2022/12/21 06:41:07;;;;;;;26.98;18.80;;;;;;;;;;5050841;28;20021;-63
2022/12/21 06:43:34;;;;;;;30.77;19.02;;;;;;;;;;5052358;28;20017;-63
2022/12/21 06:46:00;;;;;;;31.40;19.13;;;;;;;;;;5043614;28;20143;-63
2022/12/21 06:48:27;;;;;;;31.25;20.40;;;;;;;;;;5052370;28;20031;-64
2022/12/21 06:50:53;;;;;;;37.63;23.67;;;;;;;;;;5049363;28;20047;-63
2022/12/21 06:53:18;;;;;;;38.35;27.88;;;;;;;;;;5052224;28;20484;-63
2022/12/21 06:55:43;;;;;;;41.42;28.40;;;;;;;;;;5053247;28;20035;-63
2022/12/21 06:58:09;;;;;;;37.90;25.02;;;;;;;;;;5051863;28;20020;-63
2022/12/21 07:00:34;;;;;;;34.65;23.55;;;;;;;;;;5051257;28;20051;-63
2022/12/21 07:02:59;;;;;;;49.92;33.80;;;;;;;;;;5050651;28;20482;-63
2022/12/21 07:05:24;;;;;;;51.72;40.50;;;;;;;;;;5041833;28;20290;-63
2022/12/21 07:07:50;;;;;;;37.30;30.57;;;;;;;;;;5052149;28;20096;-63
2022/12/21 07:10:15;;;;;;;50.65;35.03;;;;;;;;;;5052513;28;20314;-63
2022/12/21 07:12:40;;;;;;;38.28;24.52;;;;;;;;;;5052217;28;20032;-63
2022/12/21 07:15:06;;;;;;;41.65;25.27;;;;;;;;;;5052717;28;20017;-63
2022/12/21 07:17:31;;;;;;;49.53;26.38;;;;;;;;;;5052222;28;20041;-64
2022/12/21 07:19:56;;;;;;;33.15;25.95;;;;;;;;;;5051894;28;20041;-64
2022/12/21 07:22:21;;;;;;;51.42;28.83;;;;;;;;;;5052982;28;20498;-63
2022/12/21 07:24:46;;;;;;;35.65;27.40;;;;;;;;;;5051566;28;20029;-63
2022/12/21 07:27:12;;;;;;;39.50;29.48;;;;;;;;;;5041887;28;20088;-63
2022/12/21 07:29:38;;;;;;;38.58;28.20;;;;;;;;;;5051304;28;20379;-64
2022/12/21 07:32:03;;;;;;;48.30;31.10;;;;;;;;;;5048011;28;20055;-64
2022/12/21 07:34:28;;;;;;;51.17;31.08;;;;;;;;;;5033923;28;20044;-64
2022/12/21 07:36:53;;;;;;;43.78;30.73;;;;;;;;;;5026639;28;20021;-64
2022/12/21 07:39:19;;;;;;;41.35;31.05;;;;;;;;;;5018088;28;20773;-64
2022/12/21 07:41:44;;;;;;;42.90;30.87;;;;;;;;;;5017425;28;20051;-64
2022/12/21 07:44:09;;;;;;;45.33;30.02;;;;;;;;;;5004989;28;20277;-64
2022/12/21 07:46:34;;;;;;;38.65;23.42;;;;;;;;;;5016177;28;20136;-64
2022/12/21 07:49:00;;;;;;;35.58;26.10;;;;;;;;;;5024652;28;20052;-65
2022/12/21 07:51:25;;;;;;;36.45;26.08;;;;;;;;;;5026537;28;20057;-65
2022/12/21 07:53:50;;;;;;;34.13;25.10;;;;;;;;;;5016965;28;20029;-65
2022/12/21 07:56:17;;;;;;;28.30;21.08;;;;;;;;;;5026235;28;20021;-64
2022/12/21 07:58:42;;;;;;;32.08;23.10;;;;;;;;;;5023964;28;20075;-64
2022/12/21 08:01:09;;;;;;;30.25;24.05;;;;;;;;;;5023868;28;20025;-64
2022/12/21 08:03:35;;;;;;;29.08;21.35;;;;;;;;;;5026670;28;20025;-64
2022/12/21 08:06:00;;;;;;;23.40;17.50;;;;;;;;;;5023762;28;20013;-64
2022/12/21 08:08:26;;;;;;;26.45;21.17;;;;;;;;;;5012878;28;20098;-64
2022/12/21 08:10:51;;;;;;;27.48;16.67;;;;;;;;;;5019293;28;20017;-64
2022/12/21 08:13:16;;;;;;;19.73;15.13;;;;;;;;;;5017956;28;20494;-64
2022/12/21 08:15:41;;;;;;;29.85;17.98;;;;;;;;;;5014247;28;20029;-65
2022/12/21 08:18:07;;;;;;;26.00;16.88;;;;;;;;;;5016612;28;20777;-64
2022/12/21 08:20:33;;;;;;;30.92;17.35;;;;;;;;;;5023059;28;20910;-64
2022/12/21 08:22:58;;;;;;;27.42;20.33;;;;;;;;;;5014787;28;20028;-64
2022/12/21 08:25:24;;;;;;;35.00;20.88;;;;;;;;;;5020461;28;20036;-64
2022/12/21 08:27:50;;;;;;;39.42;22.35;;;;;;;;;;5012070;28;20017;-64
2022/12/21 08:30:15;;;;;;;35.97;19.67;;;;;;;;;;5019875;28;20020;-64
2022/12/21 08:32:40;;;;;;;32.08;19.00;;;;;;;;;;5019896;28;20025;-64
2022/12/21 08:35:06;;;;;;;34.05;20.20;;;;;;;;;;5018027;28;20029;-64
2022/12/21 08:37:31;;;;;;;35.25;20.15;;;;;;;;;;5018663;28;20037;-64
2022/12/21 08:39:56;;;;;;;41.75;21.75;;;;;;;;;;5022536;28;20021;-64
2022/12/21 08:42:21;;;;;;;29.75;19.88;;;;;;;;;;5019603;28;20017;-64
2022/12/21 08:44:48;;;;;;;30.05;22.30;;;;;;;;;;5017309;28;20431;-64
2022/12/21 08:47:13;;;;;;;36.15;21.90;;;;;;;;;;5021923;28;20025;-64
2022/12/21 08:49:38;;;;;;;33.65;22.42;;;;;;;;;;5028610;28;20028;-64
2022/12/21 08:52:03;;;;;;;37.30;22.60;;;;;;;;;;5027890;28;20029;-64
2022/12/21 08:54:29;;;;;;;42.40;24.08;;;;;;;;;;5028911;28;20530;-64
2022/12/21 08:56:54;;;;;;;40.10;22.88;;;;;;;;;;5027025;28;20044;-64
2022/12/21 08:59:20;;;;;;;36.92;23.80;;;;;;;;;;5014073;28;20026;-64
2022/12/21 09:01:45;;;;;;;40.15;22.02;;;;;;;;;;5022279;28;20029;-63
2022/12/21 09:04:11;;;;;;;28.73;20.73;;;;;;;;;;5025381;28;20398;-64
2022/12/21 09:06:36;;;;;;;40.63;20.50;;;;;;;;;;5026454;28;20139;-64
2022/12/21 09:09:01;;;;;;;34.57;21.37;;;;;;;;;;5025112;28;20777;-64
2022/12/21 09:11:29;;;;;;;32.28;21.25;;;;;;;;;;5021995;28;20650;-64
2022/12/21 09:13:55;;;;;;;38.20;18.80;;;;;;;;;;5027721;28;20032;-64
2022/12/21 09:16:21;;;;;;;25.20;18.70;;;;;;;;;;5034115;28;20458;-64
2022/12/21 09:18:47;;;;;;;29.48;19.77;;;;;;;;;;5034847;28;20023;-63
2022/12/21 09:21:13;;;;;;;36.03;21.55;;;;;;;;;;5034129;28;20025;-64
2022/12/21 09:23:39;;;;;;;28.85;18.55;;;;;;;;;;5032531;28;20020;-64
2022/12/21 09:26:05;;;;;;;32.42;18.48;;;;;;;;;;5032299;28;20747;-64
2022/12/21 09:28:30;;;;;;;32.35;18.67;;;;;;;;;;5036170;28;20025;-64
2022/12/21 09:30:56;;;;;;;32.58;18.90;;;;;;;;;;5034566;28;20903;-64
2022/12/21 09:33:23;;;;;;;26.33;18.55;;;;;;;;;;5036316;28;20033;-64
2022/12/21 09:35:50;;;;;;;28.13;17.08;;;;;;;;;;5037024;28;20031;-64
2022/12/21 09:38:15;;;;;;;28.63;17.38;;;;;;;;;;5034022;28;20080;-64
2022/12/21 09:40:41;;;;;;;31.90;19.98;;;;;;;;;;5037102;28;20128;-64
2022/12/21 09:43:15;;;;;;;28.33;15.55;;;;;;;;;;5035523;28;20054;-64
2022/12/21 09:45:59;;;;;;;34.80;18.98;;;;;;;;;;5035240;28;20033;-64
2022/12/21 09:48:29;;;;;;;30.43;16.23;;;;;;;;;;5035795;28;20036;-64
2022/12/21 09:50:56;;;;;;;25.27;16.05;;;;;;;;;;5034809;28;20820;-64
2022/12/21 09:53:28;;;;;;;27.02;14.68;;;;;;;;;;5033569;28;20242;-64
2022/12/21 09:55:56;;;;;;;32.55;15.27;;;;;;;;;;5026850;28;20035;-64
2022/12/21 09:58:23;;;;;;;28.60;14.40;;;;;;;;;;5028260;28;20021;-64
2022/12/21 10:00:51;;;;;;;26.60;13.80;;;;;;;;;;5035559;28;20238;-64
2022/12/21 10:03:54;;;;;;;24.50;13.00;;;;;;;;;;5035217;28;20706;-65
2022/12/21 10:06:20;;;;;;;22.90;11.95;;;;;;;;;;5013904;28;20036;-64
2022/12/21 10:08:48;;;;;;;32.47;14.75;;;;;;;;;;5011010;28;20037;-64
2022/12/21 10:11:13;;;;;;;24.65;12.32;;;;;;;;;;5022020;28;20033;-64
2022/12/21 10:13:38;;;;;;;20.67;11.33;;;;;;;;;;5031616;28;20028;-64
2022/12/21 10:16:26;;;;;;;29.65;11.40;;;;;;;;;;5033561;28;20279;-64
2022/12/21 10:18:58;;;;;;;20.55;10.95;;;;;;;;;;5028770;28;20040;-64
2022/12/21 10:21:31;;;;;;;18.40;10.25;;;;;;;;;;5022292;28;20021;-64
2022/12/21 10:23:57;;;;;;;25.88;10.88;;;;;;;;;;5003657;28;20087;-64
2022/12/21 10:26:24;;;;;;;16.05;8.60;;;;;;;;;;5006417;28;20020;-64
2022/12/21 10:28:59;;;;;;;21.05;10.50;;;;;;;;;;5018243;28;20089;-64
2022/12/21 10:31:24;;;;;;;;;;;;;;;;;;5028329;28;20021;-64
2022/12/21 10:33:50;;;;;;;18.37;9.07;;;;;;;;;;5012552;28;19970;-64
2022/12/21 10:36:17;;;;;;;20.17;9.00;;;;;;;;;;5031228;28;20032;-64
2022/12/21 10:38:42;;;;;;;13.02;7.85;;;;;;;;;;5025917;28;20032;-65
2022/12/21 10:41:16;;;;;;;18.17;8.50;;;;;;;;;;5027350;28;20025;-65
2022/12/21 10:43:42;;;;;;;16.45;8.52;;;;;;;;;;5030622;28;20136;-65
2022/12/21 10:46:07;;;;;;;12.45;8.00;;;;;;;;;;5033969;28;20021;-65
2022/12/21 10:48:33;;;;;;;17.42;8.38;;;;;;;;;;5032644;28;20099;-65
2022/12/21 10:51:11;;;;;;;18.00;8.45;;;;;;;;;;5033304;28;20021;-65
2022/12/21 10:53:37;;;;;;;15.27;7.40;;;;;;;;;;5032262;28;20779;-65
2022/12/21 10:56:04;;;;;;;17.90;8.10;;;;;;;;;;5029719;28;20118;-65
2022/12/21 10:58:34;;;;;;;19.10;7.15;;;;;;;;;;5027442;28;20131;-64
2022/12/21 11:01:04;;;;;;;15.00;6.97;;;;;;;;;;5022093;28;20028;-65
2022/12/21 11:03:29;;;;;;;13.80;7.32;;;;;;;;;;5031722;28;20033;-64
2022/12/21 11:05:55;;;;;;;13.25;6.63;;;;;;;;;;5017435;28;20095;-64
2022/12/21 11:08:20;;;;;;;13.13;6.47;;;;;;;;;;5023231;28;20021;-65
2022/12/21 11:10:47;;;;;;;14.98;6.60;;;;;;;;;;5022411;28;20055;-65
2022/12/21 11:13:13;;;;;;;10.80;5.75;;;;;;;;;;5021504;28;20939;-65
2022/12/21 11:15:39;;;;;;;15.98;5.95;;;;;;;;;;5024834;28;20028;-65
2022/12/21 11:18:04;;;;;;;19.25;5.65;;;;;;;;;;5029561;28;20446;-64
2022/12/21 11:20:30;;;;;;;14.10;6.20;;;;;;;;;;5029524;28;20029;-65
2022/12/21 11:22:56;;;;;;;12.07;5.72;;;;;;;;;;5029314;28;20017;-65
2022/12/21 11:25:24;;;;;;;12.63;5.80;;;;;;;;;;5027633;28;20032;-65
2022/12/21 11:27:53;;;;;;;14.32;5.82;;;;;;;;;;5028467;28;20650;-64
2022/12/21 11:30:20;;;;;;;9.07;5.07;;;;;;;;;;5026580;28;20056;-65
2022/12/21 11:32:47;;;;;;;8.88;5.63;;;;;;;;;;5032732;28;20546;-65
2022/12/21 11:35:20;;;;;;;10.02;6.20;;;;;;;;;;5024860;28;20044;-65
2022/12/21 11:37:46;;;;;;;11.13;5.87;;;;;;;;;;5021740;28;20036;-65
2022/12/21 11:40:20;;;;;;;13.40;5.60;;;;;;;;;;5031548;28;20104;-66
2022/12/21 11:42:58;;;;;;;9.20;5.65;;;;;;;;;;5005466;28;21019;-66
2022/12/21 11:45:42;;;;;;;8.15;5.05;;;;;;;;;;5003445;28;20033;-65
2022/12/21 11:48:16;;;;;;;9.82;5.18;;;;;;;;;;5003980;28;20029;-65
2022/12/21 11:50:54;;;;;;;13.95;5.43;;;;;;;;;;5025836;28;20029;-65
2022/12/21 11:53:22;;;;;;;12.88;6.28;;;;;;;;;;5050589;28;20463;-64
2022/12/21 11:55:59;;;;;;;9.88;5.53;;;;;;;;;;5049870;28;20036;-65
2022/12/21 11:58:40;;;;;;;20.20;7.32;;;;;;;;;;5035822;28;20033;-65
2022/12/21 12:01:25;;;;;;;14.10;6.65;;;;;;;;;;5011483;28;20061;-65
2022/12/21 12:03:55;;;;;;;16.05;7.22;;;;;;;;;;5004404;28;20962;-65
2022/12/21 12:06:32;;;;;;;11.63;7.03;;;;;;;;;;5006038;28;20013;-65
2022/12/21 12:09:18;;;;;;;9.90;6.78;;;;;;;;;;5004977;28;20453;-65
2022/12/21 12:12:13;;;;;;;9.30;6.43;;;;;;;;;;5005128;28;20890;-66
2022/12/21 12:14:55;;;;;;;13.30;6.40;;;;;;;;;;4993225;28;20140;-65
2022/12/21 12:17:21;;;;;;;14.27;7.57;;;;;;;;;;5026191;28;20848;-65
2022/12/21 12:19:52;;;;;;;7.75;5.78;;;;;;;;;;5002932;28;20112;-66
2022/12/21 12:22:20;;;;;;;11.80;6.47;;;;;;;;;;5010543;28;20074;-65
2022/12/21 12:25:04;;;;;;;11.95;6.53;;;;;;;;;;5012392;28;20052;-65
2022/12/21 12:27:47;;;;;;;12.15;6.72;;;;;;;;;;5025981;28;20036;-66
2022/12/21 12:30:20;;;;;;;10.30;5.97;;;;;;;;;;5038400;28;20036;-66
2022/12/21 12:32:45;;;;;;;8.32;5.80;;;;;;;;;;5018861;28;20032;-66
2022/12/21 12:35:31;;;;;;;8.77;5.60;;;;;;;;;;5004380;28;20040;-67
2022/12/21 12:37:57;;;;;;;7.97;4.85;;;;;;;;;;5027372;28;20009;-66
2022/12/21 12:40:25;;;;;;;12.50;4.70;;;;;;;;;;5035814;28;20450;-67
2022/12/21 12:42:51;;;;;;;8.00;5.07;;;;;;;;;;5017816;28;20263;-66
2022/12/21 12:45:25;;;;;;;7.25;4.95;;;;;;;;;;5015856;28;20892;-66
2022/12/21 12:47:51;;;;;;;9.75;5.07;;;;;;;;;;5025491;28;20040;-66
2022/12/21 12:50:21;;;;;;;9.07;5.53;;;;;;;;;;5025887;28;20009;-66
2022/12/21 12:52:59;;;;;;;7.13;5.07;;;;;;;;;;5029497;28;20053;-67
2022/12/21 12:55:27;;;;;;;8.60;4.85;;;;;;;;;;5027311;28;20447;-67
2022/12/21 12:57:56;;;;;;;6.55;5.03;;;;;;;;;;5032349;28;20023;-67
2022/12/21 13:00:23;;;;;;;10.68;5.03;;;;;;;;;;5031008;28;20025;-66
2022/12/21 13:02:58;;;;;;;9.65;4.45;;;;;;;;;;5027364;28;20013;-66
2022/12/21 13:05:35;;;;;;;11.18;5.22;;;;;;;;;;5021543;28;20538;-66
2022/12/21 13:08:11;;;;;;;9.25;4.10;;;;;;;;;;5022798;28;20052;-66
2022/12/21 13:10:59;;;;;;;7.15;4.50;;;;;;;;;;5018015;28;20021;-66
2022/12/21 13:13:27;;;;;;;8.25;4.40;;;;;;;;;;5029627;28;20025;-66
2022/12/21 13:15:52;;;;;;;8.57;4.93;;;;;;;;;;5027872;28;20043;-66
2022/12/21 13:18:20;;;;;;;8.73;4.80;;;;;;;;;;5022096;28;20242;-66
2022/12/21 13:20:46;;;;;;;9.60;4.43;;;;;;;;;;5023024;28;20072;-66
2022/12/21 13:23:23;;;;;;;9.57;5.03;;;;;;;;;;5023206;28;20079;-66
2022/12/21 13:25:56;;;;;;;8.90;5.10;;;;;;;;;;5023597;28;20083;-66
2022/12/21 13:28:29;;;;;;;6.53;4.33;;;;;;;;;;5026003;28;20123;-67
2022/12/21 13:30:57;;;;;;;9.25;4.80;;;;;;;;;;5027214;28;20345;-66
2022/12/21 13:33:22;;;;;;;6.47;4.68;;;;;;;;;;5021445;28;20028;-66
2022/12/21 13:35:47;;;;;;;7.18;4.40;;;;;;;;;;5020485;28;20033;-69
2022/12/21 13:38:21;;;;;;;7.70;4.83;;;;;;;;;;5021136;28;20062;-69
2022/12/21 13:40:55;;;;;;;6.13;3.80;;;;;;;;;;5018255;28;20270;-65
2022/12/21 13:43:26;;;;;;;9.35;4.00;;;;;;;;;;5022396;28;20079;-66
2022/12/21 13:46:01;;;;;;;14.18;4.65;;;;;;;;;;5025066;28;20028;-64
2022/12/21 13:48:29;;;;;;;6.75;3.85;;;;;;;;;;5020264;28;20033;-65
2022/12/21 13:51:13;;;;;;;10.77;3.83;;;;;;;;;;5033555;28;20029;-65
2022/12/21 13:53:50;;;;;;;7.32;3.72;;;;;;;;;;5014401;28;20031;-66
2022/12/21 13:56:15;;;;;;;9.25;3.58;;;;;;;;;;5026638;28;20028;-72
2022/12/21 13:58:45;;;;;;;7.05;3.30;;;;;;;;;;5024756;28;20016;-68
2022/12/21 14:01:37;;;;;;;7.68;3.25;;;;;;;;;;5025190;28;20025;-67
2022/12/21 14:04:05;;;;;;;10.55;3.80;;;;;;;;;;5005290;28;20024;-66
2022/12/21 14:06:33;;;;;;;13.60;3.08;;;;;;;;;;5013103;28;20070;-73
2022/12/21 14:09:04;;;;;;;4.50;2.70;;;;;;;;;;5020985;28;20028;-68
2022/12/21 14:11:38;;;;;;;5.05;2.67;;;;;;;;;;5019326;28;20017;-71
2022/12/21 14:14:22;;;;;;;5.55;2.67;;;;;;;;;;5019813;28;20025;-69
2022/12/21 14:16:55;;;;;;;6.00;2.45;;;;;;;;;;5021175;28;20118;-71
2022/12/21 14:19:24;;;;;;;4.38;2.40;;;;;;;;;;5022036;28;20018;-67
2022/12/21 14:21:49;;;;;;;9.43;2.75;;;;;;;;;;5018494;28;20091;-67
2022/12/21 14:24:21;;;;;;;6.95;3.28;;;;;;;;;;5020001;28;20804;-68
2022/12/21 14:26:50;;;;;;;4.20;2.20;;;;;;;;;;5022663;28;20013;-66
2022/12/21 14:29:18;;;;;;;7.47;3.00;;;;;;;;;;5025600;28;20021;-65
2022/12/21 14:31:48;;;;;;;15.63;2.83;;;;;;;;;;5023899;28;20799;-67
2022/12/21 14:34:14;;;;;;;6.57;2.83;;;;;;;;;;5023899;28;20104;-69
2022/12/21 14:36:59;;;;;;;8.13;2.95;;;;;;;;;;5028347;28;20892;-66
2022/12/21 14:39:33;;;;;;;4.75;2.53;;;;;;;;;;5024918;28;20499;-67
2022/12/21 14:42:35;;;;;;;12.10;2.40;;;;;;;;;;5022114;28;20063;-65
2022/12/21 14:45:09;;;;;;;8.45;3.10;;;;;;;;;;4998756;28;20402;-66